Time;durP1;ratioP1;P1;durP2;ratioP2;P2;SDS_P1;SDS_P2;PMS_P1;PMS_P2;Temp;Humidity;BMP_temperature;BMP_pressure;BME280_temperature;BME280_humidity;BME280_pressure;Samples;Min_cycle;Max_cycle;Signal;HPM_P1;HPM_P2
2022/05/13 00:00:22;;;;;;;4.57;3.33;;;;;;;14.13;100.00;93390.84;2111720;28;20050;-82
2022/05/13 00:01:23;;;;;;;5.10;3.08;;;;;;;14.06;100.00;93389.13;2098603;28;20444;-81
2022/05/13 00:02:24;;;;;;;4.05;2.92;;;;;;;14.07;100.00;93389.88;2089927;28;20028;-82
2022/05/13 00:03:25;;;;;;;3.42;3.13;;;;;;;14.00;100.00;93390.09;2107078;28;20094;-82
2022/05/13 00:04:26;;;;;;;5.20;3.28;;;;;;;14.32;100.00;93395.25;2098663;28;20478;-81
2022/05/13 00:05:27;;;;;;;4.85;2.97;;;;;;;14.16;100.00;93389.97;2098577;28;20078;-81
2022/05/13 00:06:28;;;;;;;4.47;3.38;;;;;;;14.17;100.00;93391.47;2106944;28;20019;-81
2022/05/13 00:07:29;;;;;;;5.10;3.50;;;;;;;14.27;100.00;93384.28;2098697;28;20032;-83
2022/05/13 00:08:31;;;;;;;6.15;3.35;;;;;;;14.21;100.00;93383.31;2107246;28;20102;-82
2022/05/13 00:10:53;;;;;;;3.95;3.17;;;;;;;14.32;100.00;93383.75;2107007;28;20046;-81
2022/05/13 00:11:54;;;;;;;4.65;2.92;;;;;;;14.16;100.00;93386.53;2115441;28;20478;-82
2022/05/13 00:12:55;;;;;;;6.40;3.83;;;;;;;14.22;100.00;93385.56;2115545;28;20476;-80
2022/05/13 00:13:57;;;;;;;4.15;3.63;;;;;;;14.35;100.00;93388.22;2097452;28;20044;-82
2022/05/13 00:15:00;;;;;;;4.72;3.50;;;;;;;14.41;100.00;93383.81;2090480;28;20024;-80
2022/05/13 00:16:01;;;;;;;6.38;3.65;;;;;;;14.29;100.00;93381.91;2098888;28;20435;-82
2022/05/13 00:17:03;;;;;;;3.67;2.95;;;;;;;14.18;100.00;93384.16;2098835;28;20070;-80
2022/05/13 00:18:05;;;;;;;3.63;3.20;;;;;;;14.21;100.00;93383.31;2098670;28;20016;-82
2022/05/13 00:19:08;;;;;;;5.38;3.15;;;;;;;14.15;100.00;93383.09;2106849;28;20076;-80
2022/05/13 00:20:11;;;;;;;3.45;2.85;;;;;;;14.31;100.00;93384.91;2115209;28;20114;-83
2022/05/13 00:21:12;;;;;;;3.53;3.22;;;;;;;14.23;100.00;93372.88;2103595;28;20169;-82
2022/05/13 00:22:13;;;;;;;3.95;3.47;;;;;;;14.10;100.00;93381.72;2098738;28;20528;-82
2022/05/13 00:23:15;;;;;;;3.45;3.15;;;;;;;14.02;100.00;93382.38;2090355;28;20166;-80
2022/05/13 00:24:15;;;;;;;4.45;3.58;;;;;;;14.02;100.00;93393.13;2090171;28;20092;-82
2022/05/13 00:25:21;;;;;;;6.53;3.30;;;;;;;14.16;100.00;93389.22;2096210;28;20032;-80
2022/05/13 00:26:22;;;;;;;6.15;3.38;;;;;;;14.24;100.00;93391.28;2097742;28;20056;-81
2022/05/13 00:27:24;;;;;;;3.47;3.00;;;;;;;14.14;100.00;93383.53;2109099;27;20028;-81
2022/05/13 00:28:25;;;;;;;4.30;3.58;;;;;;;14.19;100.00;93389.13;2098318;28;20020;-80
2022/05/13 00:29:27;;;;;;;4.97;3.42;;;;;;;14.04;100.00;93383.41;2101536;28;20020;-82
2022/05/13 00:30:31;;;;;;;3.83;3.30;;;;;;;13.96;100.00;93395.59;2104270;28;20027;-82
2022/05/13 00:31:31;;;;;;;4.28;3.45;;;;;;;13.90;100.00;93383.84;2098281;28;20024;-81
2022/05/13 00:32:32;;;;;;;4.15;3.33;;;;;;;13.88;100.00;93388.94;2081927;28;20025;-82
2022/05/13 00:33:33;;;;;;;3.65;3.10;;;;;;;13.80;100.00;93393.00;2086023;28;20107;-83
2022/05/13 00:34:34;;;;;;;5.13;3.40;;;;;;;13.87;100.00;93395.47;2090135;28;20017;-79
2022/05/13 00:35:37;;;;;;;3.60;3.30;;;;;;;13.87;100.00;93392.78;2092816;28;20064;-81
2022/05/13 00:36:38;;;;;;;3.63;3.30;;;;;;;13.94;100.00;93394.50;2098524;28;20021;-82
2022/05/13 00:37:39;;;;;;;3.80;3.28;;;;;;;13.79;100.00;93394.94;2092911;28;20518;-82
2022/05/13 00:38:50;;;;;;;4.07;3.38;;;;;;;13.78;100.00;93398.03;2111347;28;20020;-81
2022/05/13 00:39:51;;;;;;;4.20;3.28;;;;;;;13.72;100.00;93392.44;2106208;28;20056;-81
2022/05/13 00:40:52;;;;;;;4.72;3.70;;;;;;;13.82;100.00;93393.31;2098353;28;20036;-81
2022/05/13 00:41:53;;;;;;;3.80;3.50;;;;;;;13.78;100.00;93388.06;2094901;28;20025;-82
2022/05/13 00:42:59;;;;;;;3.55;3.15;;;;;;;13.98;100.00;93387.09;2106746;28;20020;-81
2022/05/13 00:44:00;;;;;;;4.55;3.47;;;;;;;14.08;100.00;93397.50;2107519;28;20024;-80
2022/05/13 00:45:02;;;;;;;3.70;3.40;;;;;;;14.07;100.00;93390.63;2098456;28;20087;-81
2022/05/13 00:46:03;;;;;;;3.90;3.50;;;;;;;13.97;100.00;93388.28;2098793;28;20484;-80
2022/05/13 00:47:05;;;;;;;4.00;3.60;;;;;;;13.91;100.00;93390.72;2098119;28;20017;-79
2022/05/13 00:48:06;;;;;;;4.15;3.30;;;;;;;13.91;100.00;93395.34;2098595;28;20024;-82
2022/05/13 00:49:13;;;;;;;3.88;3.33;;;;;;;13.86;100.00;93391.28;2115319;28;20111;-81
2022/05/13 00:50:15;;;;;;;3.40;3.10;;;;;;;13.97;100.00;93399.78;2122814;27;20026;-81
2022/05/13 00:51:27;;;;;;;6.88;3.58;;;;;;;14.03;100.00;93394.59;2123369;27;20027;-82
2022/05/13 00:52:29;;;;;;;3.95;3.53;;;;;;;13.95;100.00;93390.63;2114958;28;20019;-83
2022/05/13 00:53:29;;;;;;;3.60;3.30;;;;;;;14.02;100.00;93399.25;2098479;28;20024;-82
2022/05/13 00:54:33;;;;;;;5.07;3.28;;;;;;;14.01;100.00;93391.63;2098244;28;20062;-82
2022/05/13 00:55:37;;;;;;;4.53;3.60;;;;;;;14.03;100.00;93394.59;2090754;28;20028;-80
2022/05/13 00:56:42;;;;;;;4.25;3.50;;;;;;;14.06;100.00;93394.50;2098814;28;20491;-81
2022/05/13 00:57:45;;;;;;;3.72;3.33;;;;;;;14.07;100.00;93393.31;2091177;28;20032;-84
2022/05/13 00:58:49;;;;;;;4.35;3.55;;;;;;;14.12;100.00;93394.72;2098459;28;20029;-80
2022/05/13 00:59:57;;;;;;;3.70;3.35;;;;;;;14.23;100.00;93397.09;2104917;28;20020;-82
2022/05/13 01:00:58;;;;;;;3.40;3.10;;;;;;;14.19;100.00;93391.81;2098280;28;20464;-81
2022/05/13 01:01:58;;;;;;;4.90;3.20;;;;;;;14.14;100.00;93397.75;2105023;28;20024;-81
2022/05/13 01:03:00;;;;;;;3.88;3.28;;;;;;;14.28;100.00;93393.84;2131433;27;20106;-81
2022/05/13 01:04:06;;;;;;;4.03;3.25;;;;;;;14.29;100.00;93389.97;2115114;28;20019;-81
2022/05/13 01:05:08;;;;;;;4.25;3.85;;;;;;;14.30;100.00;93380.72;2108076;27;20032;-82
2022/05/13 01:06:14;;;;;;;5.38;2.92;;;;;;;14.33;100.00;93377.91;2106530;28;20499;-83
2022/05/13 01:07:19;;;;;;;3.70;3.33;;;;;;;14.25;100.00;93381.25;2107994;27;20048;-81
2022/05/13 01:08:20;;;;;;;5.22;3.83;;;;;;;14.28;100.00;93375.78;2107185;28;20051;-80
2022/05/13 01:09:23;;;;;;;4.47;3.42;;;;;;;14.26;100.00;93377.38;2098366;28;20070;-82
2022/05/13 01:10:26;;;;;;;3.00;2.80;;;;;;;14.31;100.00;93379.53;2107189;27;20031;-82
2022/05/13 01:11:33;;;;;;;4.22;3.22;;;;;;;14.38;100.00;93371.25;2123950;27;20026;-82
2022/05/13 01:12:42;;;;;;;3.90;3.33;;;;;;;14.20;100.00;93374.50;2122905;27;20015;-81
2022/05/13 01:13:45;;;;;;;3.60;3.22;;;;;;;14.07;100.00;93373.75;2090273;28;20465;-82
2022/05/13 01:15:00;;;;;;;4.93;3.33;;;;;;;14.08;100.00;93376.00;2098585;28;20028;-83
2022/05/13 01:16:01;;;;;;;3.58;3.25;;;;;;;14.00;100.00;93371.28;2098062;28;20028;-84
2022/05/13 01:18:51;;;;;;;4.93;3.40;;;;;;;14.03;100.00;93371.16;2104790;28;20492;-82
2022/05/13 01:19:52;;;;;;;4.68;3.70;;;;;;;14.22;100.00;93374.81;2089819;28;20025;-80
2022/05/13 01:20:55;;;;;;;3.90;3.20;;;;;;;14.24;100.00;93374.38;2081760;28;20029;-81
2022/05/13 01:21:58;;;;;;;7.93;3.38;;;;;;;14.13;100.00;93368.59;2090171;28;20028;-81
2022/05/13 01:23:10;;;;;;;3.35;3.05;;;;;;;14.20;100.00;93376.44;2081928;28;20027;-83
2022/05/13 01:24:11;;;;;;;3.47;2.95;;;;;;;14.19;100.00;93372.25;2075710;28;20494;-81
2022/05/13 01:25:15;;;;;;;3.80;3.30;;;;;;;14.13;100.00;93368.59;2081552;28;20048;-79
2022/05/13 01:26:19;;;;;;;3.92;3.17;;;;;;;14.21;100.00;93376.00;2089420;28;20079;-80
2022/05/13 01:27:20;;;;;;;12.55;3.60;;;;;;;14.15;100.00;93372.34;2082172;28;20026;-82
2022/05/13 01:28:25;;;;;;;4.50;3.13;;;;;;;14.16;100.00;93370.41;2083047;28;20021;-80
2022/05/13 01:29:26;;;;;;;3.92;3.10;;;;;;;14.11;100.00;93372.47;2096076;28;20055;-82
2022/05/13 01:30:28;;;;;;;3.85;3.50;;;;;;;14.02;100.00;93369.69;2089728;28;20083;-84
2022/05/13 01:31:35;;;;;;;4.43;3.40;;;;;;;14.05;100.00;93371.50;2106790;28;20043;-81
2022/05/13 01:32:36;;;;;;;5.20;3.38;;;;;;;13.99;100.00;93377.84;2106469;28;20049;-80
2022/05/13 01:33:38;;;;;;;3.97;3.58;;;;;;;14.00;100.00;93371.28;2102681;28;21012;-80
2022/05/13 01:34:39;;;;;;;4.38;3.70;;;;;;;13.97;100.00;93374.84;2098135;28;20017;-80
2022/05/13 01:35:42;;;;;;;3.15;2.85;;;;;;;13.92;100.00;93365.38;2106436;28;20491;-80
2022/05/13 01:36:43;;;;;;;3.60;3.10;;;;;;;14.17;100.00;93364.59;2106618;28;20031;-81
2022/05/13 01:37:44;;;;;;;6.18;3.53;;;;;;;14.13;100.00;93361.25;2097428;28;20079;-80
2022/05/13 01:38:45;;;;;;;6.15;3.38;;;;;;;14.07;100.00;93365.69;2089358;28;20058;-82
2022/05/13 01:39:46;;;;;;;5.65;3.47;;;;;;;14.01;100.00;93364.75;2097872;28;20020;-81
2022/05/13 01:40:48;;;;;;;4.57;3.50;;;;;;;14.08;100.00;93369.88;2097753;28;20055;-80
2022/05/13 01:41:51;;;;;;;4.07;3.30;;;;;;;14.02;100.00;93369.69;2089855;28;20025;-83
2022/05/13 01:42:52;;;;;;;5.50;3.30;;;;;;;13.97;100.00;93370.22;2098714;28;20043;-84
2022/05/13 01:43:53;;;;;;;4.03;3.40;;;;;;;14.02;100.00;93369.69;2097999;28;20032;-80
2022/05/13 01:44:54;;;;;;;4.30;3.22;;;;;;;14.08;100.00;93373.31;2106253;28;20035;-82
2022/05/13 01:45:56;;;;;;;4.15;3.47;;;;;;;14.17;100.00;93359.22;2097880;28;20665;-81
2022/05/13 01:46:57;;;;;;;9.38;3.65;;;;;;;14.05;100.00;93366.13;2098249;28;20035;-82
2022/05/13 01:47:58;;;;;;;4.43;3.53;;;;;;;14.01;100.00;93360.09;2097890;28;20036;-80
2022/05/13 01:49:01;;;;;;;3.92;3.20;;;;;;;14.23;100.00;93372.88;2097997;28;20020;-82
2022/05/13 01:50:03;;;;;;;4.72;3.08;;;;;;;14.07;100.00;93368.38;2083621;28;20052;-83
2022/05/13 01:51:05;;;;;;;7.28;3.53;;;;;;;14.03;100.00;93368.47;2106231;28;20059;-82
2022/05/13 01:52:06;;;;;;;3.38;3.08;;;;;;;14.04;100.00;93367.28;2097721;28;20058;-81
2022/05/13 01:53:09;;;;;;;3.92;2.90;;;;;;;14.03;100.00;93365.78;2089831;28;20033;-82
2022/05/13 01:54:10;;;;;;;6.70;3.70;;;;;;;14.15;100.00;93369.66;2098307;28;20039;-80
2022/05/13 01:55:11;;;;;;;4.85;3.55;;;;;;;14.15;100.00;93376.97;2090332;28;20021;-84
2022/05/13 01:56:12;;;;;;;4.90;3.22;;;;;;;14.16;100.00;93376.53;2089469;28;20420;-82
2022/05/13 01:57:13;;;;;;;3.70;3.30;;;;;;;14.21;100.00;93367.94;2081434;28;20075;-85
2022/05/13 01:58:17;;;;;;;4.47;3.63;;;;;;;14.39;100.00;93370.03;2090030;28;20093;-83
2022/05/13 01:59:18;;;;;;;3.30;3.00;;;;;;;14.31;100.00;93374.16;2097765;28;20028;-80
2022/05/13 02:00:20;;;;;;;4.50;3.72;;;;;;;14.45;100.00;93372.97;2089945;28;20024;-84
2022/05/13 02:01:21;;;;;;;4.10;3.63;;;;;;;14.23;100.00;93378.28;2097765;28;20070;-82
2022/05/13 02:02:23;;;;;;;5.32;3.20;;;;;;;14.20;100.00;93376.44;2097014;28;20450;-80
2022/05/13 02:03:44;;;;;;;5.18;3.45;;;;;;;14.08;100.00;93384.06;2089956;28;20029;-82
2022/05/13 02:04:45;;;;;;;4.75;3.10;;;;;;;14.22;100.00;93374.81;2094472;28;20367;-83
2022/05/13 02:05:46;;;;;;;4.38;3.60;;;;;;;14.21;100.00;93384.06;2089604;28;20028;-80
2022/05/13 02:06:47;;;;;;;6.30;3.90;;;;;;;14.11;100.00;93380.53;2097759;28;20032;-81
2022/05/13 02:07:48;;;;;;;5.20;3.55;;;;;;;14.08;100.00;93383.31;2081399;28;20053;-82
2022/05/13 02:08:55;;;;;;;4.15;3.70;;;;;;;14.13;100.00;93379.34;2081551;28;20520;-82
2022/05/13 02:09:55;;;;;;;5.45;3.60;;;;;;;14.08;100.00;93384.06;2093139;28;20087;-83
2022/05/13 02:10:57;;;;;;;5.25;3.38;;;;;;;14.07;100.00;93393.31;2097800;28;20044;-83
2022/05/13 02:13:13;;;;;;;;;;;;;;;13.85;100.00;93377.09;2148914;27;20538;-81
2022/05/13 02:14:16;;;;;;;4.50;4.07;;;;;;;13.88;100.00;93382.81;2129465;27;19948;-82
2022/05/13 02:15:17;;;;;;;4.53;3.65;;;;;;;13.78;100.00;93374.63;2105363;28;20031;-82
2022/05/13 02:16:19;;;;;;;9.93;3.83;;;;;;;13.88;100.00;93375.50;2113222;27;20035;-83
2022/05/13 02:17:20;;;;;;;6.88;3.67;;;;;;;13.83;100.00;93378.72;2121709;28;20027;-82
2022/05/13 02:18:21;;;;;;;4.72;3.72;;;;;;;13.77;100.00;93369.66;2104794;28;20025;-83
2022/05/13 02:19:22;;;;;;;4.38;3.58;;;;;;;13.77;100.00;93369.66;2113414;27;20027;-82
2022/05/13 02:20:23;;;;;;;4.00;3.60;;;;;;;13.75;100.00;93362.03;2113862;28;20023;-80
2022/05/13 02:21:25;;;;;;;4.32;3.20;;;;;;;13.74;100.00;93362.47;2113100;28;20024;-81
2022/05/13 02:22:26;;;;;;;5.40;4.32;;;;;;;13.66;100.00;93355.81;2122259;27;20796;-83
2022/05/13 02:23:28;;;;;;;4.07;3.67;;;;;;;13.71;100.00;93358.72;2130371;27;20029;-82
2022/05/13 02:24:29;;;;;;;4.80;3.40;;;;;;;13.72;100.00;93354.84;2122196;27;20106;-82
2022/05/13 02:25:30;;;;;;;4.22;3.83;;;;;;;13.77;100.00;93353.53;2112791;28;20027;-82
2022/05/13 02:26:32;;;;;;;4.30;3.60;;;;;;;13.78;100.00;93347.00;2104317;28;20116;-84
2022/05/13 02:27:33;;;;;;;4.75;3.35;;;;;;;13.74;100.00;93351.72;2113473;27;20020;-81
2022/05/13 02:28:35;;;;;;;6.68;4.18;;;;;;;13.56;100.00;93347.66;2114208;28;20491;-82
2022/05/13 02:29:35;;;;;;;4.07;3.72;;;;;;;13.54;100.00;93346.56;2105148;28;20028;-80
2022/05/13 02:30:37;;;;;;;4.05;3.40;;;;;;;13.67;100.00;93351.94;2113308;28;20030;-81
2022/05/13 02:31:38;;;;;;;4.43;3.67;;;;;;;13.56;100.00;93350.34;2104721;28;20188;-80
2022/05/13 02:32:39;;;;;;;4.28;3.88;;;;;;;13.53;100.00;93359.25;2113326;28;20555;-83
2022/05/13 02:33:41;;;;;;;3.50;3.20;;;;;;;13.52;100.00;93343.53;2130260;27;20129;-83
2022/05/13 02:34:42;;;;;;;6.53;3.55;;;;;;;13.71;100.00;93347.97;2121707;28;20023;-81
2022/05/13 02:35:43;;;;;;;5.32;3.83;;;;;;;13.68;100.00;93351.50;2113233;27;20024;-82
2022/05/13 02:36:44;;;;;;;3.72;3.38;;;;;;;13.56;100.00;93357.59;2121607;27;20023;-81
2022/05/13 02:37:45;;;;;;;5.45;3.55;;;;;;;13.59;100.00;93354.06;2112712;28;20518;-80
2022/05/13 02:38:46;;;;;;;3.63;3.35;;;;;;;13.69;100.00;93352.25;2112753;28;20056;-82
2022/05/13 02:39:47;;;;;;;3.80;3.50;;;;;;;13.50;100.00;93351.28;2104807;28;20028;-81
2022/05/13 02:42:08;;;;;;;5.07;3.65;;;;;;;13.34;100.00;93350.19;2126789;27;20459;-81
2022/05/13 02:43:09;;;;;;;5.20;3.85;;;;;;;13.28;100.00;93348.44;2130140;27;20078;-82
2022/05/13 02:44:14;;;;;;;4.95;3.90;;;;;;;13.18;100.00;93347.56;2130320;27;20022;-83
2022/05/13 02:45:14;;;;;;;4.55;3.78;;;;;;;13.15;100.00;93353.00;2130356;27;20023;-81
2022/05/13 02:46:23;;;;;;;6.35;4.35;;;;;;;13.06;100.00;93345.59;2121527;27;20053;-80
2022/05/13 02:47:24;;;;;;;4.22;3.83;;;;;;;13.06;100.00;93346.34;2122593;27;20102;-83
2022/05/13 02:48:26;;;;;;;3.90;3.60;;;;;;;13.03;100.00;93341.81;2121689;27;20019;-82
2022/05/13 02:49:27;;;;;;;4.60;3.92;;;;;;;13.04;100.00;93342.59;2129620;27;20059;-82
2022/05/13 02:50:28;;;;;;;4.40;4.03;;;;;;;13.05;100.00;93341.41;2112761;28;20020;-82
2022/05/13 02:51:29;;;;;;;4.30;3.90;;;;;;;13.03;100.00;93346.41;2121492;28;20030;-83
2022/05/13 02:52:30;;;;;;;4.85;3.60;;;;;;;13.02;100.00;93344.91;2121421;27;20035;-83
2022/05/13 02:53:31;;;;;;;4.05;3.65;;;;;;;13.18;100.00;93344.13;2121786;27;20023;-83
2022/05/13 02:54:33;;;;;;;5.10;4.45;;;;;;;13.11;100.00;93337.75;2130040;27;20042;-81
2022/05/13 02:55:34;;;;;;;4.28;3.85;;;;;;;13.05;100.00;93352.13;2130383;27;20067;-83
2022/05/13 02:56:35;;;;;;;4.97;4.03;;;;;;;13.29;100.00;93345.34;2129911;27;20148;-84
2022/05/13 02:57:36;;;;;;;4.65;4.20;;;;;;;13.26;100.00;93338.16;2128649;27;20030;-82
2022/05/13 02:58:39;;;;;;;4.60;3.70;;;;;;;13.17;100.00;93342.59;2129614;27;20765;-82
2022/05/13 02:59:40;;;;;;;4.82;4.25;;;;;;;13.10;100.00;93344.31;2130387;27;20019;-82
2022/05/13 03:00:41;;;;;;;4.15;3.75;;;;;;;13.09;100.00;93345.50;2130081;27;20019;-83
2022/05/13 03:01:42;;;;;;;4.47;3.97;;;;;;;13.18;100.00;93346.81;2121099;27;20027;-79
2022/05/13 03:02:43;;;;;;;5.53;4.10;;;;;;;13.16;100.00;93354.50;2120581;27;20023;-82
2022/05/13 03:03:46;;;;;;;4.20;3.75;;;;;;;13.17;100.00;93347.97;2121509;27;20392;-81
2022/05/13 03:04:47;;;;;;;4.68;4.25;;;;;;;13.20;100.00;93344.44;2121762;27;20031;-82
2022/05/13 03:05:48;;;;;;;8.25;3.85;;;;;;;13.09;100.00;93350.84;2121289;28;20064;-82
2022/05/13 03:06:51;;;;;;;7.22;4.00;;;;;;;13.03;100.00;93344.50;2121523;27;20027;-83
2022/05/13 03:07:52;;;;;;;4.55;4.13;;;;;;;12.99;100.00;93348.44;2120999;28;20026;-81
2022/05/13 03:08:54;;;;;;;7.00;4.20;;;;;;;12.98;100.00;93349.63;2104606;28;20024;-81
2022/05/13 03:09:55;;;;;;;5.43;3.78;;;;;;;12.97;100.00;93346.19;2113035;27;20020;-81
2022/05/13 03:10:56;;;;;;;4.43;3.95;;;;;;;13.05;100.00;93350.19;2121162;27;20038;-83
2022/05/13 03:11:57;;;;;;;4.80;3.97;;;;;;;13.04;100.00;93348.69;2121376;27;20015;-81
2022/05/13 03:12:58;;;;;;;6.25;4.43;;;;;;;13.06;100.00;93346.34;2112674;28;20039;-80
2022/05/13 03:13:59;;;;;;;5.53;4.28;;;;;;;12.97;100.00;93348.88;2120437;27;20024;-82
2022/05/13 03:15:02;;;;;;;6.05;4.45;;;;;;;12.89;100.00;93350.25;2129831;27;20018;-83
2022/05/13 03:16:18;;;;;;;11.80;4.25;;;;;;;12.85;100.00;93346.91;2121339;27;20027;-83
2022/05/13 03:17:18;;;;;;;5.10;4.25;;;;;;;12.94;100.00;93343.59;2123391;27;20078;-82
2022/05/13 03:18:19;;;;;;;9.60;4.50;;;;;;;12.90;100.00;93348.31;2121175;27;20031;-82
2022/05/13 03:19:20;;;;;;;4.47;3.95;;;;;;;12.88;100.00;93345.31;2112804;28;20035;-81
2022/05/13 03:20:23;;;;;;;7.82;3.92;;;;;;;12.83;100.00;93351.94;2113039;27;20031;-80
2022/05/13 03:21:24;;;;;;;5.97;4.28;;;;;;;12.89;100.00;93350.25;2112697;28;20020;-82
2022/05/13 03:22:26;;;;;;;5.72;4.25;;;;;;;12.94;100.00;93341.66;2096325;28;20021;-82
2022/05/13 03:23:28;;;;;;;5.57;4.25;;;;;;;12.93;100.00;93347.47;2100711;28;20028;-81
2022/05/13 03:24:29;;;;;;;5.45;4.60;;;;;;;12.85;100.00;93344.97;2091446;28;20470;-80
2022/05/13 03:25:32;;;;;;;6.20;4.10;;;;;;;12.93;100.00;93342.09;2090138;28;20029;-82
2022/05/13 03:26:33;;;;;;;4.82;4.15;;;;;;;12.88;100.00;93339.94;2099011;28;20493;-82
2022/05/13 03:27:34;;;;;;;4.78;4.38;;;;;;;13.03;100.00;93339.13;2114019;28;20027;-82
2022/05/13 03:28:35;;;;;;;4.68;4.00;;;;;;;12.93;100.00;93337.50;2114974;28;20027;-84
2022/05/13 03:29:36;;;;;;;5.10;4.53;;;;;;;12.94;100.00;93327.50;2107182;28;20028;-82
2022/05/13 03:30:37;;;;;;;6.82;4.28;;;;;;;12.90;100.00;93322.22;2107419;28;20911;-80
2022/05/13 03:31:38;;;;;;;4.28;3.85;;;;;;;12.89;100.00;93325.34;2107124;28;20042;-82
2022/05/13 03:32:40;;;;;;;5.13;4.20;;;;;;;12.87;100.00;93333.09;2090504;28;20572;-81
2022/05/13 03:33:41;;;;;;;5.68;4.28;;;;;;;12.85;100.00;93333.50;2102176;28;20073;-82
2022/05/13 03:34:42;;;;;;;4.93;4.20;;;;;;;12.99;100.00;93337.72;2094524;28;20025;-80
2022/05/13 03:35:43;;;;;;;6.63;4.22;;;;;;;13.06;100.00;93342.91;2098704;28;20369;-81
2022/05/13 03:36:44;;;;;;;4.75;4.20;;;;;;;12.93;100.00;93334.81;2106985;28;20042;-83
2022/05/13 03:37:45;;;;;;;7.18;4.68;;;;;;;12.87;100.00;93338.44;2098236;28;20024;-82
2022/05/13 03:38:46;;;;;;;4.78;3.92;;;;;;;12.83;100.00;93338.53;2090310;28;20417;-80
2022/05/13 03:39:47;;;;;;;7.05;4.65;;;;;;;12.80;100.00;93340.13;2102000;28;20065;-80
2022/05/13 03:40:49;;;;;;;4.97;4.40;;;;;;;12.77;100.00;93340.97;2107207;28;20024;-82
2022/05/13 03:41:50;;;;;;;5.05;4.07;;;;;;;12.71;100.00;93339.25;2103529;28;20048;-81
2022/05/13 03:42:51;;;;;;;5.72;4.65;;;;;;;12.69;100.00;93333.56;2098623;28;20095;-81
2022/05/13 03:43:52;;;;;;;12.30;4.82;;;;;;;12.70;100.00;93351.16;2090396;28;20071;-81
2022/05/13 03:44:53;;;;;;;5.40;4.53;;;;;;;12.69;100.00;93347.72;2109498;27;20024;-79
2022/05/13 03:45:55;;;;;;;8.38;4.90;;;;;;;12.65;100.00;93341.69;2123702;27;20046;-83
2022/05/13 03:46:55;;;;;;;5.10;4.60;;;;;;;12.63;100.00;93346.72;2107001;28;20023;-81
2022/05/13 03:47:56;;;;;;;5.50;4.03;;;;;;;12.68;100.00;93348.13;2112718;28;20023;-82
2022/05/13 03:48:57;;;;;;;6.93;4.40;;;;;;;12.66;100.00;93335.16;2098600;28;20426;-81
2022/05/13 03:49:58;;;;;;;6.03;4.30;;;;;;;12.63;100.00;93341.34;2105916;28;20020;-79
2022/05/13 03:50:59;;;;;;;4.85;3.92;;;;;;;12.64;100.00;93339.41;2115307;28;20027;-82
2022/05/13 03:52:00;;;;;;;4.65;4.25;;;;;;;12.62;100.00;93339.09;2106932;28;20039;-81
2022/05/13 03:53:02;;;;;;;5.82;4.18;;;;;;;12.75;100.00;93346.00;2115481;28;20375;-81
2022/05/13 03:54:04;;;;;;;5.05;4.32;;;;;;;12.74;100.00;93351.81;2106966;28;20024;-80
2022/05/13 03:55:07;;;;;;;4.97;4.53;;;;;;;12.71;100.00;93341.91;2099466;28;20024;-82
2022/05/13 03:56:08;;;;;;;4.85;4.35;;;;;;;12.71;100.00;93347.28;2104275;28;20024;-81
2022/05/13 03:57:09;;;;;;;5.68;4.35;;;;;;;12.69;100.00;93347.72;2098521;28;20258;-80
2022/05/13 03:58:10;;;;;;;4.20;3.90;;;;;;;12.73;100.00;93343.00;2113724;28;20062;-82
2022/05/13 03:59:11;;;;;;;5.45;4.25;;;;;;;12.84;100.00;93351.53;2110813;28;20019;-80
2022/05/13 04:00:13;;;;;;;7.95;5.00;;;;;;;12.78;100.00;93353.22;2106745;28;20070;-80
2022/05/13 04:01:14;;;;;;;10.07;4.82;;;;;;;12.79;100.00;93348.59;2098745;28;20111;-82
2022/05/13 04:02:15;;;;;;;5.72;5.15;;;;;;;12.77;100.00;93346.34;2097790;28;20021;-81
2022/05/13 04:03:19;;;;;;;6.10;5.50;;;;;;;12.78;100.00;93347.88;2102520;28;20028;-81
2022/05/13 04:04:22;;;;;;;8.88;5.07;;;;;;;12.77;100.00;93356.31;2115399;27;20027;-82
2022/05/13 04:09:22;;;;;;;11.60;4.80;;;;;;;12.90;100.00;93348.31;2109203;28;20055;-80
2022/05/13 04:10:23;;;;;;;5.35;4.53;;;;;;;12.88;100.00;93351.44;2115287;28;20028;-81
2022/05/13 04:11:29;;;;;;;5.10;4.60;;;;;;;12.82;100.00;93345.84;2106618;28;20107;-81
2022/05/13 04:16:30;;;;;;;4.78;4.38;;;;;;;12.92;100.00;93344.03;2106741;28;20391;-82
2022/05/13 04:17:31;;;;;;;4.80;4.28;;;;;;;12.97;100.00;93351.56;2106561;28;20031;-80
2022/05/13 04:18:47;;;;;;;8.57;5.40;;;;;;;12.88;100.00;93350.69;2094064;28;20057;-82
2022/05/13 04:19:48;;;;;;;7.80;4.70;;;;;;;12.92;100.00;93352.09;2094563;28;20032;-81
2022/05/13 04:20:48;;;;;;;5.85;4.57;;;;;;;12.90;100.00;93354.44;2106543;28;20027;-83
2022/05/13 04:21:49;;;;;;;9.18;4.72;;;;;;;12.88;100.00;93350.69;2105977;28;20020;-81
2022/05/13 04:22:50;;;;;;;8.10;5.10;;;;;;;12.90;100.00;93353.69;2094994;28;20027;-81
2022/05/13 04:23:53;;;;;;;10.70;4.80;;;;;;;12.91;100.00;93355.22;2098208;28;20108;-81
2022/05/13 04:24:54;;;;;;;5.30;4.80;;;;;;;12.96;100.00;93346.63;2098526;28;20115;-81
2022/05/13 04:25:55;;;;;;;5.20;4.70;;;;;;;12.95;100.00;93347.78;2089235;28;20029;-83
2022/05/13 04:26:56;;;;;;;7.00;5.28;;;;;;;13.07;100.00;93341.72;2095755;28;20036;-82
2022/05/13 04:27:57;;;;;;;10.75;5.43;;;;;;;13.09;100.00;93348.16;2098345;28;20401;-82
2022/05/13 04:29:00;;;;;;;5.75;5.20;;;;;;;13.16;100.00;93349.16;2108158;28;20028;-81
2022/05/13 04:30:00;;;;;;;6.57;4.70;;;;;;;13.20;100.00;93339.81;2114967;28;20106;-81
2022/05/13 04:31:02;;;;;;;8.55;5.57;;;;;;;13.14;100.00;93352.25;2098288;28;20024;-82
2022/05/13 04:32:04;;;;;;;6.13;5.32;;;;;;;13.13;100.00;93345.41;2092933;28;20063;-82
2022/05/13 04:33:05;;;;;;;9.93;5.25;;;;;;;13.16;100.00;93357.94;2098208;28;20028;-80
2022/05/13 04:34:08;;;;;;;9.10;5.45;;;;;;;13.22;100.00;93353.59;2098146;28;20178;-82
2022/05/13 04:35:09;;;;;;;8.00;5.15;;;;;;;13.21;100.00;93357.41;2106704;28;20027;-82
2022/05/13 04:36:10;;;;;;;6.10;4.97;;;;;;;13.22;100.00;93356.28;2108731;28;20020;-83
2022/05/13 04:37:12;;;;;;;11.77;5.80;;;;;;;13.28;100.00;93354.56;2098106;28;20056;-82
2022/05/13 04:38:16;;;;;;;7.78;5.70;;;;;;;13.31;100.00;93352.97;2106392;28;20028;-80
2022/05/13 04:39:17;;;;;;;6.18;5.57;;;;;;;13.35;100.00;93353.63;2106195;28;20436;-80
2022/05/13 04:40:18;;;;;;;7.35;5.63;;;;;;;13.35;100.00;93353.63;2098259;28;20063;-80
2022/05/13 04:42:50;;;;;;;7.22;5.78;;;;;;;13.37;100.00;93345.13;2109370;28;20020;-82
2022/05/13 04:43:51;;;;;;;;;;;;;;;13.37;100.00;93345.88;2108262;28;20447;-80
2022/05/13 04:44:52;;;;;;;7.15;5.28;;;;;;;13.39;100.00;93343.53;2098009;28;19998;-81
2022/05/13 04:45:53;;;;;;;5.90;5.25;;;;;;;13.47;100.00;93347.50;2098085;28;20041;-81
2022/05/13 04:46:54;;;;;;;6.63;5.32;;;;;;;13.74;100.00;93357.09;2107325;28;20031;-80
2022/05/13 04:48:17;;;;;;;5.63;5.00;;;;;;;13.70;100.00;93356.47;2106312;28;20107;-81
2022/05/13 04:49:18;;;;;;;9.45;5.18;;;;;;;13.83;100.00;93351.84;2100882;28;20027;-82
2022/05/13 04:50:21;;;;;;;10.07;5.50;;;;;;;13.68;100.00;93358.81;2097203;28;20076;-82
2022/05/13 04:51:22;;;;;;;6.88;5.60;;;;;;;13.60;100.00;93355.56;2106589;28;20028;-80
2022/05/13 04:52:24;;;;;;;11.05;6.18;;;;;;;13.57;100.00;93351.81;2106387;28;20070;-83
2022/05/13 04:53:29;;;;;;;9.80;5.50;;;;;;;13.59;100.00;93356.75;2106399;28;20038;-81
2022/05/13 04:54:30;;;;;;;8.32;6.22;;;;;;;13.55;100.00;93359.56;2106321;28;20166;-84
2022/05/13 04:55:31;;;;;;;9.48;6.18;;;;;;;13.51;100.00;93347.41;2098079;28;20117;-84
2022/05/13 04:56:33;;;;;;;7.97;5.53;;;;;;;13.50;100.00;93352.03;2106183;28;20503;-83
2022/05/13 04:57:34;;;;;;;9.10;6.47;;;;;;;13.56;100.00;93354.94;2104919;28;20613;-81
2022/05/13 04:58:36;;;;;;;10.15;6.50;;;;;;;13.54;100.00;93347.31;2097966;28;20021;-83
2022/05/13 04:59:37;;;;;;;9.10;6.68;;;;;;;13.64;100.00;93352.78;2089903;28;20029;-82
2022/05/13 05:00:38;;;;;;;16.60;6.13;;;;;;;13.81;100.00;93359.56;2106384;28;20020;-82
2022/05/13 05:01:39;;;;;;;8.23;5.80;;;;;;;13.80;100.00;93355.38;2114293;28;20468;-82
2022/05/13 05:02:40;;;;;;;9.38;6.63;;;;;;;13.72;100.00;93356.78;2105264;28;20019;-83
2022/05/13 05:03:42;;;;;;;8.27;6.10;;;;;;;13.69;100.00;93360.31;2098004;28;20048;-81